Time;durP1;ratioP1;P1;durP2;ratioP2;P2;SDS_P1;SDS_P2;PMS_P1;PMS_P2;Temp;Humidity;BMP_temperature;BMP_pressure;BME280_temperature;BME280_humidity;BME280_pressure;Samples;Min_cycle;Max_cycle;Signal;HPM_P1;HPM_P2
2022/07/06 00:00:58;;;;;;;99.59;63.20;;;;;;;24.01;48.48;100717.52;465498;114;922652;-74
2022/07/06 00:02:03;;;;;;;100.34;63.33;;;;;;;23.99;48.51;100720.59;467010;113;922627;-74
2022/07/06 00:03:06;;;;;;;106.05;64.94;;;;;;;23.98;48.55;100723.70;466816;113;922575;-74
2022/07/06 00:04:10;;;;;;;110.51;65.33;;;;;;;23.95;48.55;100715.93;466905;113;930024;-74
2022/07/06 00:05:14;;;;;;;108.61;67.08;;;;;;;23.93;48.60;100724.58;466875;113;930347;-74
2022/07/06 00:06:19;;;;;;;112.16;69.57;;;;;;;23.92;48.71;100722.11;465908;113;930541;-74
2022/07/06 00:07:22;;;;;;;110.88;64.97;;;;;;;23.91;48.70;100721.28;449337;118;922691;-74
2022/07/06 00:08:26;;;;;;;114.08;64.27;;;;;;;23.89;48.67;100728.27;449651;115;922730;-74
2022/07/06 00:09:29;;;;;;;111.69;66.67;;;;;;;23.87;48.69;100731.34;458267;115;930344;-74
2022/07/06 00:10:33;;;;;;;107.17;66.71;;;;;;;23.84;48.69;100731.13;458207;115;922848;-75
2022/07/06 00:11:36;;;;;;;107.61;67.89;;;;;;;23.81;48.74;100728.95;458245;115;922640;-75
2022/07/06 00:12:39;;;;;;;106.44;66.82;;;;;;;23.81;48.81;100737.30;458327;115;922586;-75
2022/07/06 00:13:43;;;;;;;110.52;69.55;;;;;;;23.77;48.81;100737.05;458292;115;922634;-75
2022/07/06 00:14:46;;;;;;;106.76;67.44;;;;;;;23.76;48.74;100729.02;458251;115;922832;-75
2022/07/06 00:15:50;;;;;;;109.22;68.12;;;;;;;23.74;48.80;100736.84;458199;115;922600;-75
2022/07/06 00:16:53;;;;;;;112.42;66.85;;;;;;;23.72;48.88;100731.55;458193;115;923022;-75
2022/07/06 00:17:57;;;;;;;107.79;63.83;;;;;;;23.73;48.89;100732.39;458154;115;930350;-75
2022/07/06 00:19:00;;;;;;;126.40;67.99;;;;;;;23.73;48.95;100729.60;458226;115;924772;-75
2022/07/06 00:20:05;;;;;;;105.64;67.57;;;;;;;23.73;48.98;100740.73;458206;115;922577;-75
2022/07/06 00:21:08;;;;;;;109.53;65.35;;;;;;;23.72;49.03;100730.72;458215;115;922699;-76
2022/07/06 00:22:11;;;;;;;104.58;64.62;;;;;;;23.71;49.04;100738.24;458258;115;922963;-76
2022/07/06 00:23:15;;;;;;;108.69;64.47;;;;;;;23.71;48.96;100737.45;458173;115;923024;-73
2022/07/06 00:24:18;;;;;;;100.27;62.48;;;;;;;23.69;48.93;100735.78;458155;115;922666;-73
2022/07/06 00:25:21;;;;;;;105.43;60.78;;;;;;;23.67;48.94;100732.45;458158;115;922871;-73
2022/07/06 00:26:25;;;;;;;108.24;61.36;;;;;;;23.66;48.91;100735.53;458114;115;922578;-73
2022/07/06 00:27:28;;;;;;;102.32;59.85;;;;;;;23.65;48.85;100737.48;458232;115;930668;-73
2022/07/06 00:28:32;;;;;;;101.73;60.04;;;;;;;23.63;48.84;100736.97;458225;115;923254;-73
2022/07/06 00:29:35;;;;;;;102.32;58.00;;;;;;;23.63;48.77;100738.92;457446;115;922900;-74
2022/07/06 00:30:39;;;;;;;91.99;56.90;;;;;;;23.62;48.71;100740.05;458148;113;922820;-73
2022/07/06 00:31:42;;;;;;;88.91;56.10;;;;;;;23.60;48.71;100734.77;458240;115;922670;-74
2022/07/06 00:32:46;;;;;;;93.71;57.00;;;;;;;23.60;48.87;100737.55;458236;115;922647;-74
2022/07/06 00:33:49;;;;;;;98.16;54.79;;;;;;;23.61;48.86;100733.64;456173;113;922682;-74
2022/07/06 00:34:53;;;;;;;82.20;53.25;;;;;;;23.61;48.90;100744.78;450495;117;922650;-74
2022/07/06 00:35:58;;;;;;;80.91;50.11;;;;;;;23.62;48.90;100742.83;450277;116;922602;-74
2022/07/06 00:37:01;;;;;;;84.82;53.08;;;;;;;23.61;48.79;100743.95;450385;117;922764;-74
2022/07/06 00:38:05;;;;;;;74.68;48.25;;;;;;;23.60;48.85;100743.12;450515;117;924152;-74
2022/07/06 00:39:08;;;;;;;76.25;48.87;;;;;;;23.59;48.62;100744.27;450450;117;922614;-74
2022/07/06 00:40:12;;;;;;;89.35;51.06;;;;;;;23.58;48.65;100742.61;450397;115;922648;-74
2022/07/06 00:41:16;;;;;;;78.69;49.87;;;;;;;23.56;48.78;100739.28;450424;117;922704;-74
2022/07/06 00:42:20;;;;;;;70.46;45.51;;;;;;;23.56;48.77;100744.84;450346;117;923021;-74
2022/07/06 00:43:23;;;;;;;71.57;44.44;;;;;;;23.57;48.66;100742.89;450307;117;930561;-74
2022/07/06 00:44:28;;;;;;;68.78;44.69;;;;;;;23.55;48.44;100743.18;450390;117;922929;-74
2022/07/06 00:45:32;;;;;;;82.41;49.73;;;;;;;23.56;48.39;100746.80;450244;115;930588;-74
2022/07/06 00:46:36;;;;;;;81.84;48.00;;;;;;;23.57;48.65;100742.89;450432;117;922555;-74
2022/07/06 00:47:41;;;;;;;73.56;47.00;;;;;;;23.57;48.72;100742.89;450395;117;922625;-74
2022/07/06 00:48:44;;;;;;;76.52;46.82;;;;;;;23.57;48.77;100740.11;450287;117;930133;-74
2022/07/06 00:51:12;;;;;;;73.90;44.02;;;;;;;23.57;48.80;100745.67;450204;116;930612;-74
2022/07/06 00:52:15;;;;;;;73.94;45.68;;;;;;;23.56;48.64;100742.06;450286;117;922674;-74
2022/07/06 00:53:19;;;;;;;71.03;44.41;;;;;;;23.56;48.64;100742.06;450412;117;922642;-74
2022/07/06 00:54:22;;;;;;;69.61;41.16;;;;;;;23.56;48.87;100742.06;450437;117;930515;-74
2022/07/06 00:55:29;;;;;;;71.60;43.58;;;;;;;23.57;48.75;100743.73;450410;115;922621;-73
2022/07/06 00:56:35;;;;;;;70.43;42.79;;;;;;;23.58;48.73;100745.39;441627;120;929023;-74
2022/07/06 00:57:39;;;;;;;65.15;41.44;;;;;;;23.58;48.78;100745.39;442355;117;922823;-74
2022/07/06 00:58:44;;;;;;;78.21;43.01;;;;;;;23.59;48.76;100738.70;450322;117;922543;-74
2022/07/06 00:59:47;;;;;;;67.21;41.34;;;;;;;23.60;48.75;100740.33;450408;117;922953;-74
2022/07/06 01:00:51;;;;;;;67.69;40.41;;;;;;;23.61;48.80;100741.16;450390;116;922564;-74
2022/07/06 01:01:54;;;;;;;60.16;38.99;;;;;;;23.61;48.70;100744.78;449953;117;922722;-74
2022/07/06 01:02:58;;;;;;;62.65;39.50;;;;;;;23.62;48.64;100737.26;449339;118;930221;-75
2022/07/06 01:04:02;;;;;;;71.86;41.81;;;;;;;23.61;48.60;100739.21;449356;117;930421;-73
2022/07/06 01:05:07;;;;;;;55.01;37.98;;;;;;;23.60;48.47;100748.69;453214;116;930480;-75
2022/07/06 01:06:11;;;;;;;60.26;39.14;;;;;;;23.58;48.49;100742.61;457194;116;922847;-74
2022/07/06 01:07:15;;;;;;;60.29;38.34;;;;;;;23.58;48.54;100744.55;449426;118;922532;-75
2022/07/06 01:08:18;;;;;;;61.64;37.68;;;;;;;23.57;48.46;100743.73;449493;118;922731;-73
2022/07/06 01:09:22;;;;;;;53.83;36.33;;;;;;;23.56;48.46;100747.62;449425;117;922713;-75
2022/07/06 01:10:27;;;;;;;59.14;34.92;;;;;;;23.54;48.40;100743.50;449329;116;922675;-75
2022/07/06 01:11:31;;;;;;;51.62;34.12;;;;;;;23.53;48.37;100752.97;449392;118;922871;-75
2022/07/06 01:12:36;;;;;;;49.48;33.35;;;;;;;23.52;48.36;100748.52;449356;118;923210;-75
2022/07/06 01:13:40;;;;;;;60.78;35.42;;;;;;;23.51;48.34;100755.21;449244;117;930536;-75
2022/07/06 01:14:44;;;;;;;49.66;33.38;;;;;;;23.48;48.31;100753.86;454404;116;922550;-75
2022/07/06 01:15:48;;;;;;;48.59;31.65;;;;;;;23.46;48.33;100753.32;457186;116;922630;-75
2022/07/06 01:16:51;;;;;;;48.33;33.29;;;;;;;23.44;48.42;100755.53;457128;116;922542;-75
2022/07/06 01:17:55;;;;;;;52.08;33.15;;;;;;;23.44;48.46;100746.34;457084;116;922614;-75
2022/07/06 01:19:01;;;;;;;47.89;32.41;;;;;;;23.43;48.48;100748.30;456879;116;930469;-75
2022/07/06 01:20:14;;;;;;;50.21;32.09;;;;;;;23.43;48.53;100753.06;457090;116;922621;-75
2022/07/06 01:21:17;;;;;;;46.79;31.03;;;;;;;23.41;48.31;100752.52;456718;116;922645;-75
2022/07/06 01:22:21;;;;;;;50.92;32.01;;;;;;;23.41;48.31;100752.52;457090;116;923048;-75
2022/07/06 01:23:24;;;;;;;46.37;31.42;;;;;;;23.41;48.77;100758.92;457041;116;930305;-75
2022/07/06 01:24:28;;;;;;;48.21;31.73;;;;;;;23.41;48.86;100767.27;457158;116;923135;-75
2022/07/06 01:25:32;;;;;;;49.13;30.75;;;;;;;23.40;48.91;100760.04;457069;116;927281;-75
2022/07/06 01:26:36;;;;;;;49.48;30.04;;;;;;;23.40;48.88;100754.47;457036;116;930349;-76
2022/07/06 01:27:42;;;;;;;48.38;31.54;;;;;;;23.41;48.92;100760.87;457126;116;922636;-73
2022/07/06 01:28:46;;;;;;;39.72;30.68;;;;;;;23.40;48.94;100762.82;456922;116;930380;-75
2022/07/06 01:29:49;;;;;;;48.01;30.95;;;;;;;23.40;48.94;100765.60;456249;116;922679;-75
2022/07/06 01:30:52;;;;;;;48.53;31.85;;;;;;;23.39;48.93;100763.11;449440;116;922589;-73
2022/07/06 01:31:56;;;;;;;42.04;29.57;;;;;;;23.37;49.02;100755.08;449403;118;923074;-75
2022/07/06 01:33:01;;;;;;;46.91;32.07;;;;;;;23.37;49.06;100757.86;449234;118;922666;-73
2022/07/06 01:34:04;;;;;;;44.34;30.49;;;;;;;23.36;49.18;100764.55;449386;114;922617;-73
2022/07/06 01:35:10;;;;;;;42.44;30.39;;;;;;;23.37;49.21;100770.94;449423;117;922689;-73
2022/07/06 01:36:14;;;;;;;50.99;33.02;;;;;;;23.36;49.27;100764.55;449284;118;922894;-73
2022/07/06 01:37:17;;;;;;;51.29;33.84;;;;;;;23.37;49.32;100760.64;449460;118;922718;-73
2022/07/06 01:38:23;;;;;;;56.93;35.99;;;;;;;23.38;49.39;100767.84;449255;117;923485;-73
2022/07/06 01:39:27;;;;;;;65.15;39.72;;;;;;;23.39;49.47;100775.07;449419;118;922851;-74
2022/07/06 01:40:32;;;;;;;64.38;40.61;;;;;;;23.40;49.46;100767.55;449295;116;922704;-74
2022/07/06 01:41:35;;;;;;;68.92;43.24;;;;;;;23.38;49.50;100773.41;449418;118;922974;-74
2022/07/06 01:42:40;;;;;;;77.30;43.99;;;;;;;23.38;49.58;100773.41;449407;117;930505;-74
2022/07/06 01:43:44;;;;;;;73.88;46.24;;;;;;;23.38;49.57;100772.57;449340;118;923114;-74
2022/07/06 01:44:48;;;;;;;69.46;44.74;;;;;;;23.38;49.65;100781.75;449399;118;922694;-74
2022/07/06 01:45:53;;;;;;;76.25;47.01;;;;;;;23.38;49.44;100778.14;449174;116;922989;-74
2022/07/06 01:46:56;;;;;;;77.57;45.57;;;;;;;23.38;49.44;100778.14;449398;118;922631;-74
2022/07/06 01:48:00;;;;;;;77.21;46.12;;;;;;;23.39;49.51;100775.07;449397;118;922607;-74
2022/07/06 01:49:04;;;;;;;69.56;43.07;;;;;;;23.38;49.50;100775.36;449406;118;922545;-74
2022/07/06 01:50:09;;;;;;;68.73;42.06;;;;;;;23.38;49.46;100775.36;449262;118;923305;-74
2022/07/06 01:51:14;;;;;;;65.29;42.80;;;;;;;23.38;49.53;100770.62;449119;117;922689;-75
2022/07/06 01:52:18;;;;;;;70.54;41.94;;;;;;;23.37;49.51;100770.94;449274;118;922980;-74
2022/07/06 01:53:22;;;;;;;72.56;43.52;;;;;;;23.35;49.46;100771.23;442588;119;930612;-74
2022/07/06 01:54:26;;;;;;;66.11;42.99;;;;;;;23.34;49.45;100775.13;442860;118;930614;-75
2022/07/06 01:55:29;;;;;;;70.76;44.09;;;;;;;23.30;49.55;100771.28;449362;116;922608;-74
2022/07/06 01:56:32;;;;;;;68.10;44.21;;;;;;;23.28;49.69;100771.57;449394;118;922599;-74
2022/07/06 01:57:38;;;;;;;72.46;43.84;;;;;;;23.25;49.76;100772.17;449212;117;922830;-74
2022/07/06 01:58:41;;;;;;;66.33;43.58;;;;;;;23.23;49.77;100771.63;449501;118;922610;-74
2022/07/06 01:59:45;;;;;;;70.11;44.50;;;;;;;23.21;49.74;100773.86;449404;118;922777;-74
2022/07/06 02:00:50;;;;;;;67.34;43.09;;;;;;;23.18;49.74;100773.63;449400;116;922502;-74
2022/07/06 02:01:54;;;;;;;67.45;42.71;;;;;;;23.14;49.82;100775.35;457216;115;923000;-74
2022/07/06 02:02:58;;;;;;;68.42;42.95;;;;;;;23.12;49.96;100775.64;450287;117;923029;-75
2022/07/06 02:04:01;;;;;;;67.07;41.84;;;;;;;23.12;50.12;100774.80;450534;116;923078;-75
2022/07/06 02:05:05;;;;;;;69.06;43.69;;;;;;;23.11;50.16;100773.97;457322;116;923321;-75
2022/07/06 02:06:09;;;;;;;65.82;43.75;;;;;;;23.11;50.24;100776.75;457210;114;923334;-74
2022/07/06 02:07:12;;;;;;;64.73;41.38;;;;;;;23.11;50.28;100773.14;455550;116;922869;-74
2022/07/06 02:08:16;;;;;;;61.26;39.53;;;;;;;23.09;50.28;100773.45;455517;116;922917;-73
2022/07/06 02:09:19;;;;;;;58.92;40.68;;;;;;;23.09;50.26;100775.41;455544;116;922645;-74
2022/07/06 02:10:23;;;;;;;64.19;41.04;;;;;;;23.08;50.22;100782.92;455554;116;922663;-74
2022/07/06 02:11:27;;;;;;;59.38;38.23;;;;;;;23.06;50.20;100778.75;446291;118;922784;-75
2022/07/06 02:12:31;;;;;;;69.06;42.02;;;;;;;23.03;50.29;100776.57;446771;116;922645;-75
2022/07/06 02:13:35;;;;;;;64.75;41.33;;;;;;;23.02;50.50;100772.95;455613;116;922793;-75
2022/07/06 02:14:38;;;;;;;67.73;40.79;;;;;;;23.02;50.63;100774.91;456446;116;922919;-75
2022/07/06 02:15:41;;;;;;;69.41;41.66;;;;;;;23.02;50.74;100774.91;457277;114;922642;-75
2022/07/06 02:16:45;;;;;;;63.55;41.13;;;;;;;23.03;50.81;100779.35;457217;115;922897;-75
2022/07/06 02:17:51;;;;;;;60.68;42.21;;;;;;;23.02;50.90;100775.73;456866;115;930438;-75
2022/07/06 02:18:54;;;;;;;65.35;42.42;;;;;;;23.03;50.93;100776.57;457207;116;923320;-75
2022/07/06 02:19:58;;;;;;;76.69;43.94;;;;;;;23.04;51.04;100778.23;457290;115;922896;-75
2022/07/06 02:21:01;;;;;;;60.82;43.06;;;;;;;23.04;50.94;100778.23;457237;114;923030;-75
2022/07/06 02:22:05;;;;;;;69.84;41.07;;;;;;;23.04;50.85;100778.23;457290;115;922567;-75
2022/07/06 02:23:08;;;;;;;66.81;42.04;;;;;;;23.03;50.78;100776.57;457232;116;922592;-75
2022/07/06 02:24:12;;;;;;;61.98;41.09;;;;;;;23.02;50.79;100778.52;457234;115;922463;-75
2022/07/06 02:25:16;;;;;;;71.69;41.13;;;;;;;23.02;50.85;100780.47;450177;115;922698;-75
2022/07/06 02:26:20;;;;;;;62.26;41.24;;;;;;;23.01;50.99;100776.86;450570;116;930682;-75
2022/07/06 02:27:25;;;;;;;68.52;44.79;;;;;;;23.03;51.02;100776.57;457240;116;922612;-75
2022/07/06 02:28:28;;;;;;;65.74;44.88;;;;;;;23.03;50.90;100779.35;457177;116;923303;-75
2022/07/06 02:29:32;;;;;;;69.07;45.82;;;;;;;23.03;50.75;100779.35;449130;117;923091;-75
2022/07/06 02:30:35;;;;;;;68.46;44.10;;;;;;;23.04;50.66;100778.23;448283;115;930513;-75
2022/07/06 02:31:38;;;;;;;75.08;45.63;;;;;;;23.05;50.50;100777.92;457245;116;922676;-75
2022/07/06 02:32:42;;;;;;;68.19;42.92;;;;;;;23.07;50.42;100772.91;457255;116;922682;-75
2022/07/06 02:33:46;;;;;;;78.63;45.56;;;;;;;23.09;50.47;100780.97;459127;113;930508;-75
2022/07/06 02:34:49;;;;;;;66.86;44.15;;;;;;;23.09;50.38;100780.97;466324;113;930411;-75
2022/07/06 02:35:53;;;;;;;70.64;44.83;;;;;;;23.10;50.31;100786.22;466382;113;923135;-75
2022/07/06 02:36:57;;;;;;;74.45;45.47;;;;;;;23.09;50.27;100781.80;466353;113;922525;-75
2022/07/06 02:38:00;;;;;;;67.49;44.09;;;;;;;23.09;50.24;100779.02;466312;113;922597;-75
2022/07/06 02:39:04;;;;;;;70.99;43.92;;;;;;;23.09;50.25;100780.97;466269;113;930654;-74
2022/07/06 02:40:08;;;;;;;69.67;44.36;;;;;;;23.09;50.27;100783.75;466401;113;922599;-75
2022/07/06 02:41:12;;;;;;;72.69;44.58;;;;;;;23.09;50.15;100783.75;466383;113;922816;-75
2022/07/06 02:42:16;;;;;;;73.42;45.24;;;;;;;23.09;50.15;100780.97;466401;113;922546;-75
2022/07/06 02:43:19;;;;;;;73.56;45.08;;;;;;;23.09;50.13;100780.97;466305;113;930438;-75
2022/07/06 02:44:23;;;;;;;68.92;44.83;;;;;;;23.08;50.14;100782.08;466295;113;926147;-75
2022/07/06 02:45:32;;;;;;;74.67;43.52;;;;;;;23.08;50.22;100782.92;466237;113;922937;-75
2022/07/06 02:46:35;;;;;;;71.34;43.76;;;;;;;23.05;50.14;100779.87;466395;113;922506;-75
2022/07/06 02:47:39;;;;;;;71.73;42.62;;;;;;;23.03;50.18;100784.91;466420;113;930620;-75
2022/07/06 02:48:42;;;;;;;69.63;43.21;;;;;;;23.02;50.28;100783.25;466408;113;922951;-75
2022/07/06 02:49:45;;;;;;;71.02;42.74;;;;;;;23.01;50.42;100785.20;466487;113;922620;-75
2022/07/06 02:50:49;;;;;;;65.86;43.29;;;;;;;23.01;50.66;100781.59;466355;113;922873;-75
2022/07/06 02:51:52;;;;;;;63.79;42.62;;;;;;;23.01;50.79;100784.37;466494;113;922593;-75
2022/07/06 02:52:56;;;;;;;65.61;42.23;;;;;;;23.03;50.90;100780.19;457200;116;923576;-75
2022/07/06 02:53:59;;;;;;;69.92;43.42;;;;;;;23.04;50.97;100784.63;457571;113;930517;-75
2022/07/06 02:55:03;;;;;;;74.21;44.05;;;;;;;23.07;51.14;100783.20;466410;113;922543;-75
2022/07/06 02:56:08;;;;;;;63.79;40.78;;;;;;;23.09;51.11;100792.09;466294;113;922536;-75
2022/07/06 02:57:11;;;;;;;61.91;41.05;;;;;;;23.10;51.22;100788.20;464159;113;930303;-75
2022/07/06 02:58:14;;;;;;;57.56;38.89;;;;;;;23.10;51.21;100797.34;447499;118;922628;-75
2022/07/06 02:59:18;;;;;;;65.53;40.91;;;;;;;23.10;51.23;100790.98;447413;118;923369;-75
2022/07/06 03:00:21;;;;;;;63.79;41.18;;;;;;;23.08;51.27;100791.27;447397;116;922679;-75
2022/07/06 03:01:26;;;;;;;61.02;38.81;;;;;;;23.08;51.34;100795.99;447391;118;922573;-75
2022/07/06 03:02:30;;;;;;;59.04;38.71;;;;;;;23.07;51.41;100789.59;447367;117;922925;-75
2022/07/06 03:03:33;;;;;;;65.97;40.76;;;;;;;23.08;51.52;100790.42;445386;119;922944;-75
2022/07/06 03:04:37;;;;;;;70.96;40.63;;;;;;;23.10;51.49;100790.98;445260;119;922821;-75
2022/07/06 03:05:40;;;;;;;62.33;38.96;;;;;;;23.12;51.54;100792.33;445242;117;923348;-75
2022/07/06 03:06:44;;;;;;;54.08;37.77;;;;;;;23.13;51.62;100787.59;445023;119;930424;-75
2022/07/06 03:07:47;;;;;;;66.49;40.34;;;;;;;23.14;51.69;100790.09;444843;119;922624;-75
2022/07/06 03:08:51;;;;;;;66.17;39.73;;;;;;;23.15;51.60;100797.32;444789;119;930513;-75
2022/07/06 03:09:55;;;;;;;62.27;39.28;;;;;;;23.15;51.66;100788.98;444878;119;922543;-75
2022/07/06 03:10:58;;;;;;;64.06;40.39;;;;;;;23.16;51.72;100792.55;447942;116;930258;-75
2022/07/06 03:12:02;;;;;;;63.87;42.24;;;;;;;23.16;51.80;100787.83;438589;121;922990;-75
2022/07/06 03:13:06;;;;;;;70.37;42.09;;;;;;;23.18;51.71;100784.76;437653;121;930591;-75
2022/07/06 03:14:10;;;;;;;63.79;40.43;;;;;;;23.19;51.45;100789.20;438109;119;922833;-75
2022/07/06 03:15:14;;;;;;;69.17;39.33;;;;;;;23.20;51.48;100786.14;439650;120;922627;-73
2022/07/06 03:16:21;;;;;;;62.61;40.84;;;;;;;23.25;51.31;100786.09;448049;118;923436;-75
2022/07/06 03:17:25;;;;;;;70.55;42.99;;;;;;;23.25;51.31;100786.09;442600;120;923715;-74
2022/07/06 03:18:28;;;;;;;64.62;43.13;;;;;;;23.27;50.99;100789.38;442658;120;922619;-74
2022/07/06 03:19:33;;;;;;;67.96;42.04;;;;;;;23.28;50.88;100785.48;442633;120;923725;-74
2022/07/06 03:20:37;;;;;;;69.17;42.01;;;;;;;23.32;50.78;100787.70;442588;118;930567;-74
2022/07/06 03:21:40;;;;;;;64.76;39.67;;;;;;;23.33;50.78;100787.38;435087;122;930630;-74
2022/07/06 03:22:44;;;;;;;64.37;41.25;;;;;;;23.35;50.49;100778.74;451386;116;930721;-74
2022/07/06 03:23:49;;;;;;;68.39;42.12;;;;;;;23.37;50.40;100784.86;457185;116;922611;-73
2022/07/06 03:24:52;;;;;;;68.57;42.17;;;;;;;23.39;50.29;100782.59;457350;115;922652;-74
2022/07/06 03:25:56;;;;;;;62.81;42.13;;;;;;;23.41;50.32;100780.34;457317;114;922597;-73
2022/07/06 03:26:59;;;;;;;66.96;42.58;;;;;;;23.43;50.31;100775.33;457354;115;922620;-75
2022/07/06 03:28:04;;;;;;;62.67;41.57;;;;;;;23.45;50.33;100786.97;457357;115;924891;-75
2022/07/06 03:29:07;;;;;;;71.78;43.83;;;;;;;23.46;50.45;100780.32;457322;115;930299;-75
2022/07/06 03:30:11;;;;;;;65.46;43.51;;;;;;;23.46;50.33;100786.72;453930;114;923440;-75
2022/07/06 03:31:17;;;;;;;71.28;45.03;;;;;;;23.47;50.38;100777.25;457146;116;930443;-75
2022/07/06 03:32:20;;;;;;;71.89;44.09;;;;;;;23.48;50.36;100781.70;457290;115;923073;-75
2022/07/06 03:33:24;;;;;;;76.32;45.42;;;;;;;23.49;50.38;100780.55;457310;115;923117;-75
2022/07/06 03:34:28;;;;;;;70.86;44.66;;;;;;;23.51;50.36;100778.31;450082;114;922910;-73
2022/07/06 03:35:32;;;;;;;78.96;42.73;;;;;;;23.53;50.34;100780.80;449548;116;922647;-75
2022/07/06 03:36:36;;;;;;;62.82;41.63;;;;;;;23.53;50.48;100787.20;443569;119;922618;-74
2022/07/06 03:37:41;;;;;;;75.48;45.22;;;;;;;23.58;50.60;100784.36;443889;118;930674;-74
2022/07/06 03:38:45;;;;;;;71.28;44.91;;;;;;;23.58;50.60;100784.36;443629;119;922660;-75
2022/07/06 03:39:48;;;;;;;74.77;44.98;;;;;;;23.61;50.12;100785.70;443880;118;923088;-75
2022/07/06 03:40:53;;;;;;;75.60;45.21;;;;;;;23.64;50.08;100788.75;449495;116;922733;-75
2022/07/06 03:41:56;;;;;;;73.18;46.86;;;;;;;23.65;50.07;100790.38;449606;118;922644;-75
2022/07/06 03:43:00;;;;;;;72.77;47.51;;;;;;;23.68;50.04;100786.19;449471;117;930021;-74
2022/07/06 03:44:04;;;;;;;70.95;44.05;;;;;;;23.69;50.03;100783.11;449487;117;923235;-75
2022/07/06 03:45:09;;;;;;;70.75;45.55;;;;;;;23.71;50.00;100784.77;449557;117;922553;-74
2022/07/06 03:46:14;;;;;;;70.92;45.29;;;;;;;23.75;49.55;100783.88;449445;118;930992;-75
2022/07/06 03:47:18;;;;;;;78.68;47.64;;;;;;;23.75;49.55;100783.88;449616;117;922870;-74
2022/07/06 03:48:22;;;;;;;77.99;46.96;;;;;;;23.78;49.84;100786.05;449654;117;922597;-75
2022/07/06 03:49:27;;;;;;;80.47;48.75;;;;;;;23.80;49.89;100780.20;449434;117;930903;-74
2022/07/06 03:50:32;;;;;;;81.56;46.92;;;;;;;23.82;49.96;100780.73;449503;116;922601;-75
2022/07/06 03:51:35;;;;;;;81.94;48.88;;;;;;;23.83;49.97;100782.37;449554;118;922549;-75
2022/07/06 03:52:39;;;;;;;75.24;46.64;;;;;;;23.84;49.94;100787.65;449602;118;922590;-75
2022/07/06 03:53:43;;;;;;;83.24;49.98;;;;;;;23.86;49.88;100779.84;449519;118;922842;-75
2022/07/06 03:54:46;;;;;;;74.99;46.87;;;;;;;23.88;49.89;100787.88;449505;118;922596;-74
2022/07/06 03:57:13;;;;;;;76.47;47.62;;;;;;;23.90;49.87;100788.41;449407;118;923198;-75
2022/07/06 03:58:17;;;;;;;80.79;47.82;;;;;;;23.90;49.83;100786.46;449529;118;923057;-74
2022/07/06 03:59:20;;;;;;;80.71;49.76;;;;;;;23.92;49.73;100789.79;449472;118;930414;-75
2022/07/06 04:00:25;;;;;;;78.53;46.47;;;;;;;23.94;49.74;100793.08;449422;116;922693;-75
2022/07/06 04:01:30;;;;;;;81.48;48.92;;;;;;;23.97;50.01;100792.50;449086;118;922632;-75
2022/07/06 04:02:34;;;;;;;81.25;50.12;;;;;;;23.97;50.01;100792.50;449543;118;923186;-75
2022/07/06 04:03:39;;;;;;;76.74;48.29;;;;;;;24.00;49.84;100794.67;449350;118;922656;-74
2022/07/06 04:04:43;;;;;;;86.98;50.20;;;;;;;24.02;49.84;100788.81;440331;120;923089;-74
2022/07/06 04:05:47;;;;;;;81.34;50.65;;;;;;;24.05;49.72;100793.77;440675;118;922811;-74
2022/07/06 04:06:50;;;;;;;81.91;49.02;;;;;;;24.05;49.79;100791.82;456081;115;923152;-74
2022/07/06 04:07:54;;;;;;;87.78;51.23;;;;;;;24.08;49.80;100794.03;461426;114;930572;-74
2022/07/06 04:08:59;;;;;;;82.63;51.47;;;;;;;24.11;49.84;100792.58;461369;113;930419;-74
2022/07/06 04:10:05;;;;;;;88.07;51.53;;;;;;;24.12;49.88;100791.46;461380;115;922775;-74
2022/07/06 04:11:09;;;;;;;80.49;49.31;;;;;;;24.13;49.83;100786.72;461512;115;922725;-74
2022/07/06 04:12:13;;;;;;;81.18;51.24;;;;;;;24.15;49.80;100788.05;461530;115;923325;-74
2022/07/06 04:13:18;;;;;;;86.07;51.61;;;;;;;24.17;49.75;100785.81;452361;115;922735;-75
2022/07/06 04:14:22;;;;;;;90.19;53.86;;;;;;;24.19;49.65;100786.38;452139;116;922938;-74
2022/07/06 04:15:25;;;;;;;86.76;52.18;;;;;;;24.21;49.38;100780.48;457242;114;922650;-74
2022/07/06 04:16:29;;;;;;;85.01;52.21;;;;;;;24.23;49.14;100781.86;457290;116;922960;-74
2022/07/06 04:17:51;;;;;;;84.81;53.55;;;;;;;24.26;48.93;100786.81;457179;116;930477;-74
2022/07/06 04:18:57;;;;;;;96.66;57.19;;;;;;;24.28;48.75;100787.36;457077;116;922565;-74
2022/07/06 04:20:00;;;;;;;87.89;53.21;;;;;;;24.31;48.59;100788.73;450299;117;922619;-74
2022/07/06 04:21:04;;;;;;;94.62;56.90;;;;;;;24.33;48.48;100783.66;450554;115;922660;-74
2022/07/06 04:22:08;;;;;;;92.13;56.55;;;;;;;24.36;48.31;100791.44;457135;116;930416;-74
2022/07/06 04:23:13;;;;;;;90.73;57.74;;;;;;;24.38;48.29;100786.37;457122;116;922852;-74
2022/07/06 04:24:17;;;;;;;105.49;61.66;;;;;;;24.40;48.25;100789.69;457205;116;922600;-74
2022/07/06 04:25:20;;;;;;;101.35;60.23;;;;;;;24.42;48.16;100782.67;457263;114;922555;-74
2022/07/06 04:26:25;;;;;;;99.99;59.75;;;;;;;24.44;48.15;100783.20;449972;117;922747;-74
2022/07/06 04:27:29;;;;;;;95.72;61.59;;;;;;;24.46;48.11;100789.33;450596;116;922636;-74
2022/07/06 04:28:33;;;;;;;100.33;60.73;;;;;;;24.49;48.03;100788.70;450236;117;922780;-74
2022/07/06 04:29:36;;;;;;;102.47;62.89;;;;;;;24.53;48.03;100786.16;443423;117;922644;-74
2022/07/06 04:30:39;;;;;;;99.62;63.05;;;;;;;24.55;47.90;100794.20;450619;116;922833;-74
2022/07/06 04:31:45;;;;;;;108.79;65.66;;;;;;;24.58;47.86;100786.08;457126;116;922642;-74
2022/07/06 04:32:49;;;;;;;104.65;66.47;;;;;;;24.60;47.81;100797.73;457222;115;922626;-74
2022/07/06 04:33:53;;;;;;;121.78;74.34;;;;;;;24.63;47.70;100791.56;454684;114;923462;-74
2022/07/06 04:34:56;;;;;;;120.66;73.88;;;;;;;24.66;47.62;100792.91;449421;118;922787;-74
2022/07/06 04:35:59;;;;;;;115.54;70.74;;;;;;;24.67;47.59;100792.61;449403;116;922733;-74
2022/07/06 04:37:05;;;;;;;136.56;81.44;;;;;;;24.68;47.59;100785.91;448762;117;922665;-74
2022/07/06 04:38:08;;;;;;;128.24;79.16;;;;;;;24.70;47.43;100785.61;449468;117;922643;-74
2022/07/06 04:39:12;;;;;;;135.26;78.68;;;;;;;24.72;47.12;100784.16;442601;119;923443;-74
2022/07/06 04:40:15;;;;;;;124.03;74.69;;;;;;;24.74;47.03;100786.66;442928;117;922983;-75
2022/07/06 04:41:21;;;;;;;134.42;78.12;;;;;;;24.76;46.94;100787.98;449276;118;922618;-75
2022/07/06 04:42:25;;;;;;;128.49;77.32;;;;;;;24.78;46.80;100785.73;449423;118;922598;-75
2022/07/06 04:43:29;;;;;;;131.95;78.64;;;;;;;24.81;46.72;100789.89;449387;117;922567;-75
2022/07/06 04:44:32;;;;;;;125.16;79.14;;;;;;;24.83;46.58;100779.23;449415;117;930617;-75
2022/07/06 04:45:36;;;;;;;140.42;84.72;;;;;;;24.84;46.50;100780.90;449385;116;922579;-75
2022/07/06 04:46:39;;;;;;;142.28;86.76;;;;;;;24.87;46.46;100789.47;449430;117;922633;-75
2022/07/06 04:47:44;;;;;;;137.29;85.29;;;;;;;24.89;46.28;100780.84;449381;118;930319;-75
2022/07/06 04:48:48;;;;;;;134.72;83.51;;;;;;;24.92;46.18;100780.22;449368;117;925552;-74
2022/07/06 04:49:53;;;;;;;137.65;81.58;;;;;;;24.96;46.02;100780.45;448617;116;922680;-74